createdAt,value
2023-02-12T00:01:28.879Z,73.59
2023-02-12T00:03:57.062Z,73.33
2023-02-12T00:06:25.166Z,72.24
2023-02-12T00:08:56.338Z,70.77
2023-02-12T00:11:28.553Z,71.05
2023-02-12T00:13:57.662Z,71.25
2023-02-12T00:16:29.410Z,70.69
2023-02-12T00:18:59.895Z,70.44
2023-02-12T00:21:27.721Z,70.67
2023-02-12T00:23:55.428Z,71.50
2023-02-12T00:26:24.270Z,70.70
2023-02-12T00:28:52.623Z,71.32
2023-02-12T00:31:28.103Z,71.44
2023-02-12T00:33:59.328Z,71.73
2023-02-12T00:36:29.568Z,70.89
2023-02-12T00:38:58.330Z,71.25
2023-02-12T00:41:27.387Z,71.32
2023-02-12T00:43:55.712Z,70.40
2023-02-12T00:46:23.845Z,70.28
2023-02-12T00:48:51.466Z,69.73
2023-02-12T00:51:21.099Z,69.45
2023-02-12T00:53:48.586Z,70.97
2023-02-12T00:56:16.367Z,72.24
2023-02-12T00:58:44.085Z,72.82
2023-02-12T01:01:11.569Z,73.21
2023-02-12T01:03:39.163Z,73.44
2023-02-12T01:06:07.466Z,73.06
2023-02-12T01:08:35.130Z,73.43
2023-02-12T01:11:05.472Z,74.25
2023-02-12T01:13:34.585Z,72.54
2023-02-12T01:16:24.719Z,72.95
2023-02-12T01:18:55.979Z,73.45
2023-02-12T01:21:30.675Z,73.35
2023-02-12T01:23:59.648Z,74.00
2023-02-12T01:26:28.508Z,73.81
2023-02-12T01:29:01.517Z,73.31
2023-02-12T01:31:36.590Z,74.05
2023-02-12T01:34:06.560Z,74.19
2023-02-12T01:36:34.797Z,73.85
2023-02-12T01:39:03.894Z,74.17
2023-02-12T01:41:39.293Z,73.58
2023-02-12T01:44:25.611Z,74.40
2023-02-12T01:47:02.624Z,74.05
2023-02-12T01:49:49.596Z,73.19
2023-02-12T01:52:32.190Z,73.72
2023-02-12T01:55:04.816Z,74.47
2023-02-12T01:57:39.171Z,73.84
2023-02-12T02:00:12.353Z,73.67
2023-02-12T02:02:46.622Z,72.74
2023-02-12T02:05:25.514Z,73.00
2023-02-12T02:07:54.552Z,74.06
2023-02-12T02:10:21.965Z,74.04
2023-02-12T02:13:08.163Z,74.92
2023-02-12T02:15:37.785Z,75.14
2023-02-12T02:18:27.290Z,75.48
2023-02-12T02:21:54.855Z,74.96
2023-02-12T02:24:53.117Z,74.96
2023-02-12T02:27:45.313Z,74.72
2023-02-12T02:30:27.313Z,73.71
2023-02-12T02:33:09.042Z,71.44
2023-02-12T02:36:12.601Z,70.20
2023-02-12T02:38:57.225Z,69.88
2023-02-12T02:41:46.880Z,69.04
2023-02-12T02:44:27.289Z,68.48
2023-02-12T02:46:55.203Z,67.38
2023-02-12T02:49:57.862Z,67.49
2023-02-12T02:52:40.168Z,68.50
2023-02-12T02:55:10.735Z,69.02
2023-02-12T02:57:56.294Z,68.53
2023-02-12T03:00:44.478Z,67.74
2023-02-12T03:03:51.614Z,68.00
2023-02-12T03:06:49.693Z,67.93
2023-02-12T03:09:26.167Z,67.75
2023-02-12T03:12:01.605Z,67.27
2023-02-12T03:14:42.549Z,65.24
2023-02-12T03:17:18.732Z,66.56
2023-02-12T03:19:53.336Z,67.86
2023-02-12T03:22:29.133Z,69.09
2023-02-12T03:25:12.195Z,65.93
2023-02-12T03:27:46.145Z,64.67
2023-02-12T03:30:15.147Z,64.50
2023-02-12T03:32:50.877Z,62.65
2023-02-12T03:35:55.246Z,62.26
2023-02-12T03:38:37.888Z,61.62
2023-02-12T03:41:14.118Z,62.91
2023-02-12T03:43:55.535Z,63.09
2023-02-12T03:46:43.124Z,63.74
2023-02-12T03:49:21.199Z,63.97
2023-02-12T03:51:49.602Z,62.69
2023-02-12T03:54:21.554Z,65.21
2023-02-12T03:57:21.897Z,68.13
2023-02-12T03:59:50.807Z,68.23
2023-02-12T04:02:20.148Z,68.82
2023-02-12T04:04:48.597Z,68.04
2023-02-12T04:07:17.513Z,69.36
2023-02-12T04:09:45.207Z,69.34
2023-02-12T04:12:50.276Z,70.18
2023-02-12T04:15:37.922Z,71.80
2023-02-12T04:18:18.479Z,71.75
2023-02-12T04:20:57.345Z,72.81
2023-02-12T04:24:08.153Z,73.69
2023-02-12T04:26:54.327Z,73.05
2023-02-12T04:29:50.933Z,69.76
2023-02-12T04:52:05.803Z,63.76
2023-02-12T04:54:33.213Z,63.92
2023-02-12T04:57:00.855Z,63.37
2023-02-12T04:59:28.426Z,65.00
2023-02-12T05:01:55.952Z,64.53
2023-02-12T05:04:23.455Z,65.90
2023-02-12T05:06:51.019Z,67.22
2023-02-12T05:09:21.387Z,66.08
2023-02-12T05:11:48.950Z,65.93
2023-02-12T05:14:16.588Z,66.47
2023-02-12T05:16:44.337Z,67.19
2023-02-12T05:19:12.312Z,67.75
2023-02-12T05:21:40.398Z,68.33
2023-02-12T05:24:08.768Z,67.68
2023-02-12T05:26:37.076Z,66.71
2023-02-12T05:29:04.684Z,66.77
2023-02-12T05:31:32.343Z,68.03
2023-02-12T05:33:59.967Z,67.26
2023-02-12T05:36:27.640Z,65.82
2023-02-12T05:39:00.278Z,64.43
2023-02-12T05:41:28.487Z,63.79
2023-02-12T05:43:56.070Z,66.00
2023-02-12T05:46:23.706Z,65.98
2023-02-12T05:48:51.094Z,67.27
2023-02-12T05:51:23.012Z,66.06
2023-02-12T05:53:56.056Z,64.11
2023-02-12T05:56:27.752Z,63.25
2023-02-12T05:59:07.153Z,62.61
2023-02-12T06:01:39.588Z,62.23
2023-02-12T06:04:13.797Z,62.08
2023-02-12T06:06:42.308Z,62.82
2023-02-12T06:09:12.385Z,63.40
2023-02-12T06:11:40.237Z,63.71
2023-02-12T06:14:11.364Z,64.84
2023-02-12T06:16:38.955Z,66.37
2023-02-12T06:19:07.364Z,66.04
2023-02-12T06:21:35.497Z,66.32
2023-02-12T06:24:03.279Z,63.10
2023-02-12T06:26:30.902Z,62.10
2023-02-12T06:28:58.410Z,62.33
2023-02-12T06:31:35.452Z,61.80
2023-02-12T06:34:06.697Z,61.89
2023-02-12T06:36:36.684Z,61.79
2023-02-12T06:39:07.621Z,61.18
2023-02-12T06:41:35.877Z,60.16
2023-02-12T06:44:04.188Z,60.42
2023-02-12T06:46:32.354Z,60.49
2023-02-12T06:49:01.430Z,59.57
2023-02-12T06:51:31.345Z,59.39
2023-02-12T06:53:59.183Z,59.41
2023-02-12T06:56:29.075Z,58.74
2023-02-12T06:59:01.484Z,59.03
2023-02-12T07:01:30.448Z,58.54
2023-02-12T07:04:02.203Z,58.28
2023-02-12T07:06:32.167Z,57.22
2023-02-12T07:09:03.816Z,57.11
2023-02-12T07:11:38.353Z,57.29
2023-02-12T07:14:07.587Z,57.94
2023-02-12T07:16:35.193Z,58.67
2023-02-12T07:19:05.307Z,58.97
2023-02-12T07:21:33.083Z,58.90
2023-02-12T07:24:03.652Z,59.18
2023-02-12T07:26:31.137Z,57.99
2023-02-12T07:28:59.225Z,57.81
2023-02-12T07:31:27.005Z,58.46
2023-02-12T07:33:57.513Z,58.42
2023-02-12T07:36:27.892Z,58.52
2023-02-12T07:38:57.168Z,58.43
2023-02-12T07:41:28.916Z,58.33
2023-02-12T07:44:09.362Z,58.10
2023-02-12T07:46:45.676Z,58.89
2023-02-12T07:49:22.400Z,58.92
2023-02-12T07:51:55.594Z,58.11
2023-02-12T07:54:23.327Z,57.40
2023-02-12T07:56:52.191Z,57.75
2023-02-12T07:59:22.490Z,57.85
2023-02-12T08:01:52.564Z,57.68
2023-02-12T08:04:25.238Z,56.22
2023-02-12T08:06:55.294Z,57.47
2023-02-12T08:09:27.229Z,57.24
2023-02-12T08:11:58.033Z,56.49
2023-02-12T08:14:26.501Z,56.24
2023-02-12T08:16:54.109Z,56.17
2023-02-12T08:19:25.779Z,55.92
2023-02-12T08:21:56.759Z,55.91
2023-02-12T08:24:25.542Z,55.81
2023-02-12T08:26:53.424Z,55.88
2023-02-12T08:29:28.375Z,55.82
2023-02-12T08:32:19.088Z,55.73
2023-02-12T08:34:46.725Z,54.97
2023-02-12T08:37:14.839Z,53.07
2023-02-12T08:39:42.505Z,52.17
2023-02-12T08:42:10.484Z,50.41
2023-02-12T08:44:38.064Z,49.94
2023-02-12T08:47:07.200Z,49.43
2023-02-12T08:49:34.666Z,48.04
2023-02-12T08:52:03.072Z,46.63
2023-02-12T08:54:33.438Z,45.93
2023-02-12T08:57:03.958Z,46.72
2023-02-12T08:59:31.814Z,46.78
2023-02-12T09:02:00.779Z,46.89
2023-02-12T09:04:29.665Z,46.07
2023-02-12T09:06:58.212Z,44.81
2023-02-12T09:09:26.313Z,45.89
2023-02-12T09:11:53.820Z,46.86
2023-02-12T09:14:25.128Z,47.18
2023-02-12T09:16:55.151Z,47.34
2023-02-12T09:19:23.647Z,46.95
2023-02-12T09:21:56.158Z,47.43
2023-02-12T09:24:25.663Z,48.45
2023-02-12T09:26:53.178Z,47.64
2023-02-12T09:29:20.659Z,47.43
2023-02-12T09:31:48.310Z,47.04
2023-02-12T09:34:16.055Z,47.39
2023-02-12T09:36:43.562Z,46.71
2023-02-12T09:39:11.088Z,45.85
2023-02-12T09:42:08.674Z,45.71
2023-02-12T09:45:12.420Z,46.15
2023-02-12T09:48:04.430Z,44.91
2023-02-12T09:50:53.652Z,45.27
2023-02-12T09:53:26.263Z,44.52
2023-02-12T09:55:56.569Z,44.51
2023-02-12T09:58:51.182Z,44.20
2023-02-12T10:01:24.171Z,44.05
2023-02-12T10:03:53.922Z,44.32
2023-02-12T10:06:26.926Z,43.62
2023-02-12T10:09:29.706Z,44.56
2023-02-12T10:12:45.954Z,44.51
2023-02-12T10:15:31.244Z,43.45
2023-02-12T10:18:07.569Z,43.44
2023-02-12T10:20:57.579Z,43.02
2023-02-12T10:23:59.475Z,42.47
2023-02-12T10:27:07.387Z,42.89
2023-02-12T10:29:39.126Z,42.28
2023-02-12T10:32:19.040Z,40.73
2023-02-12T10:34:47.455Z,40.56
2023-02-12T10:37:48.126Z,39.46
2023-02-12T10:40:29.989Z,38.18
2023-02-12T10:43:00.506Z,37.60
2023-02-12T10:45:40.007Z,37.25
2023-02-12T10:48:19.070Z,36.17
2023-02-12T10:51:08.535Z,36.44
2023-02-12T10:53:43.097Z,34.70
2023-02-12T10:56:13.350Z,35.52
2023-02-12T10:59:03.044Z,33.77
2023-02-12T11:01:42.799Z,33.94
2023-02-12T11:04:32.087Z,33.42
2023-02-12T11:07:07.088Z,34.28
2023-02-12T11:09:45.311Z,33.10
2023-02-12T11:12:37.770Z,34.11
2023-02-12T11:15:21.152Z,34.28
2023-02-12T11:18:05.499Z,35.52
2023-02-12T11:20:42.116Z,35.05
2023-02-12T11:23:26.246Z,34.69
2023-02-12T11:26:01.481Z,34.27
2023-02-12T11:28:34.462Z,34.66
2023-02-12T11:31:15.646Z,35.17
2023-02-12T11:33:43.983Z,35.12
2023-02-12T11:36:25.296Z,35.72
2023-02-12T11:38:56.204Z,33.88
2023-02-12T11:42:04.057Z,34.16
2023-02-12T11:44:41.966Z,34.48
2023-02-12T11:47:20.376Z,33.98
2023-02-12T11:50:00.834Z,34.23
2023-02-12T11:52:32.346Z,34.34
2023-02-12T11:55:05.179Z,34.66
2023-02-12T11:58:14.418Z,33.38
2023-02-12T12:01:12.292Z,34.30
2023-02-12T12:04:10.567Z,32.94
2023-02-12T12:06:56.806Z,34.64
2023-02-12T12:10:05.693Z,34.40
2023-02-12T12:12:59.305Z,33.41
2023-02-12T12:16:02.720Z,34.14
2023-02-12T12:19:04.652Z,33.90
2023-02-12T12:21:34.669Z,34.21
2023-02-12T12:24:12.283Z,35.12
2023-02-12T12:26:46.162Z,35.20
2023-02-12T12:29:24.507Z,33.99
2023-02-12T12:32:00.449Z,33.41
2023-02-12T12:34:29.580Z,32.79
2023-02-12T12:37:12.636Z,32.92
2023-02-12T12:40:23.206Z,32.06
2023-02-12T12:43:22.847Z,32.59
2023-02-12T12:46:26.517Z,31.54
2023-02-12T12:49:32.452Z,31.64
2023-02-12T12:52:31.816Z,31.43
2023-02-12T12:55:57.091Z,32.59
2023-02-12T12:59:08.261Z,33.59
2023-02-12T13:01:55.985Z,33.83
2023-02-12T13:04:45.979Z,33.92
2023-02-12T13:07:49.884Z,34.04
2023-02-12T13:31:31.878Z,34.18
2023-02-12T13:34:07.086Z,33.24
2023-02-12T13:36:37.926Z,34.03
2023-02-12T13:39:14.425Z,33.98
2023-02-12T13:41:54.046Z,32.96
2023-02-12T13:44:37.708Z,33.42
2023-02-12T13:47:40.767Z,34.10
2023-02-12T13:50:34.777Z,33.17
2023-02-12T13:53:39.498Z,33.41
2023-02-12T13:56:33.469Z,34.07
2023-02-12T13:59:34.363Z,33.46
2023-02-12T14:02:39.070Z,34.47
2023-02-12T14:05:29.156Z,32.81
2023-02-12T14:08:05.786Z,31.98
2023-02-12T14:10:40.226Z,32.33
2023-02-12T14:13:48.915Z,32.98
2023-02-12T14:16:32.594Z,32.28
2023-02-12T14:19:40.930Z,31.55
2023-02-12T14:22:44.425Z,32.61
2023-02-12T14:25:14.707Z,32.56
2023-02-12T14:28:13.070Z,33.01
2023-02-12T14:30:41.391Z,33.33
2023-02-12T14:33:08.916Z,33.54
2023-02-12T14:35:41.378Z,32.75
2023-02-12T14:38:18.588Z,33.45
2023-02-12T14:40:52.721Z,32.71
2023-02-12T14:43:58.798Z,32.15
2023-02-12T14:46:29.290Z,32.72
2023-02-12T14:48:59.559Z,33.70
2023-02-12T14:51:53.070Z,33.53
2023-02-12T14:54:51.381Z,32.47
2023-02-12T14:57:40.799Z,32.06
2023-02-12T15:00:46.264Z,32.56
2023-02-12T15:03:13.753Z,33.41
2023-02-12T15:06:11.079Z,34.24
2023-02-12T15:08:56.717Z,35.67
2023-02-12T15:11:33.308Z,36.17
2023-02-12T15:14:17.096Z,38.03
2023-02-12T15:17:28.511Z,38.42
2023-02-12T15:20:25.994Z,38.18
2023-02-12T15:22:56.218Z,37.42
2023-02-12T15:25:28.170Z,37.09
2023-02-12T15:28:00.378Z,37.60
2023-02-12T15:30:33.021Z,38.23
2023-02-12T15:33:34.454Z,38.98
2023-02-12T15:36:06.142Z,39.53
2023-02-12T15:38:42.765Z,40.62
2023-02-12T15:41:33.014Z,40.75
2023-02-12T15:44:19.990Z,40.49
2023-02-12T15:47:10.940Z,40.72
2023-02-12T15:49:40.970Z,41.28
2023-02-12T15:52:21.558Z,42.01
2023-02-12T15:54:50.574Z,41.93
2023-02-12T15:57:27.113Z,41.97
2023-02-12T16:00:11.086Z,41.59
2023-02-12T16:02:41.734Z,41.76
2023-02-12T16:05:15.928Z,41.91
2023-02-12T16:07:43.781Z,43.09
2023-02-12T16:10:19.341Z,42.93
2023-02-12T16:12:48.362Z,42.65
2023-02-12T16:15:30.907Z,43.37
2023-02-12T16:18:03.952Z,45.13
2023-02-12T16:20:32.730Z,46.37
2023-02-12T16:23:00.894Z,46.10
2023-02-12T16:25:33.601Z,45.97
2023-02-12T16:28:24.774Z,46.66
2023-02-12T16:30:54.105Z,46.13
2023-02-12T16:33:43.335Z,47.16
2023-02-12T16:36:22.666Z,45.72
2023-02-12T16:39:22.684Z,44.95
2023-02-12T16:42:00.032Z,44.90
2023-02-12T16:44:31.531Z,45.74
2023-02-12T16:47:02.130Z,45.34
2023-02-12T16:49:29.856Z,44.71
2023-02-12T16:52:40.701Z,44.72
2023-02-12T16:55:28.260Z,45.05
2023-02-12T16:57:55.776Z,43.91
2023-02-12T17:00:24.128Z,44.45
2023-02-12T17:02:54.387Z,43.98
2023-02-12T17:05:27.309Z,44.72
2023-02-12T17:07:55.048Z,44.56
2023-02-12T17:10:25.501Z,45.17
2023-02-12T17:12:54.817Z,45.85
2023-02-12T17:15:30.947Z,45.78
2023-02-12T17:18:01.637Z,46.51
2023-02-12T17:20:32.176Z,46.68
2023-02-12T17:23:00.991Z,48.56
2023-02-12T17:25:30.299Z,48.77
2023-02-12T17:27:59.628Z,48.26
2023-02-12T17:30:32.501Z,49.39
2023-02-12T17:33:00.542Z,49.19
2023-02-12T17:35:29.692Z,49.04
2023-02-12T17:37:57.223Z,49.25
2023-02-12T17:40:24.956Z,49.49
2023-02-12T17:42:56.933Z,49.50
2023-02-12T17:45:30.538Z,48.31
2023-02-12T17:48:00.144Z,49.12
2023-02-12T17:50:28.687Z,49.14
2023-02-12T17:52:56.387Z,49.16
2023-02-12T17:55:26.903Z,48.49
2023-02-12T17:57:57.653Z,47.61
2023-02-12T18:00:30.683Z,46.86
2023-02-12T18:02:59.454Z,48.35
2023-02-12T18:05:27.598Z,48.82
2023-02-12T18:07:57.151Z,50.14
2023-02-12T18:10:25.470Z,50.08
2023-02-12T18:12:56.494Z,50.60
2023-02-12T18:15:24.111Z,50.88
2023-02-12T18:17:54.373Z,51.03
2023-02-12T18:20:22.527Z,51.60
2023-02-12T18:22:50.320Z,51.98
2023-02-12T18:25:18.995Z,52.50
2023-02-12T18:27:47.272Z,52.74
2023-02-12T18:30:19.246Z,52.52
2023-02-12T18:32:49.783Z,52.84
2023-02-12T18:35:24.268Z,54.29
2023-02-12T18:37:53.068Z,54.73
2023-02-12T18:40:21.782Z,55.35
2023-02-12T18:42:49.586Z,55.72
2023-02-12T18:45:43.411Z,55.93
2023-02-12T18:48:34.202Z,55.08
2023-02-12T18:51:06.748Z,54.58
2023-02-12T18:53:38.449Z,54.80
2023-02-12T18:56:10.634Z,52.31
2023-02-12T18:58:40.530Z,50.96
2023-02-12T19:01:21.151Z,50.95
2023-02-12T19:03:55.775Z,49.62
2023-02-12T19:06:28.328Z,50.96
2023-02-12T19:09:04.353Z,51.22
2023-02-12T19:11:36.581Z,52.74
2023-02-12T19:14:05.029Z,53.96
2023-02-12T19:16:34.149Z,52.71
2023-02-12T19:19:14.493Z,52.73
2023-02-12T19:21:48.018Z,53.90
2023-02-12T19:24:17.572Z,53.85
2023-02-12T19:26:50.579Z,51.40
2023-02-12T19:29:19.970Z,50.72
2023-02-12T19:31:50.558Z,52.98
2023-02-12T19:34:47.191Z,53.39
2023-02-12T19:37:17.030Z,52.60
2023-02-12T19:39:44.810Z,52.44
2023-02-12T19:42:15.600Z,52.15
2023-02-12T19:44:49.820Z,49.23
2023-02-12T19:47:25.160Z,48.74
2023-02-12T19:49:53.980Z,50.05
2023-02-12T19:52:22.677Z,49.67
2023-02-12T19:54:51.695Z,51.49
2023-02-12T19:57:19.244Z,51.25
2023-02-12T19:59:50.091Z,51.93
2023-02-12T20:02:18.040Z,53.38
2023-02-12T20:04:47.662Z,54.01
2023-02-12T20:07:17.061Z,52.57
2023-02-12T20:09:52.915Z,52.38
2023-02-12T20:12:20.525Z,51.71
2023-02-12T20:14:50.036Z,52.36
2023-02-12T20:17:31.477Z,52.61
2023-02-12T20:20:06.038Z,53.34
2023-02-12T20:22:33.737Z,53.16
2023-02-12T20:25:01.312Z,53.24
2023-02-12T20:27:34.306Z,53.83
2023-02-12T20:30:02.162Z,54.41
2023-02-12T20:32:29.842Z,55.47
2023-02-12T20:34:57.847Z,54.64
2023-02-12T20:37:25.323Z,54.66
2023-02-12T20:39:56.489Z,54.51
2023-02-12T20:42:26.199Z,54.64
2023-02-12T20:44:57.868Z,54.72
2023-02-12T20:47:33.215Z,54.62
2023-02-12T20:50:01.760Z,53.79
2023-02-12T20:52:32.809Z,52.20
2023-02-12T20:55:01.575Z,53.72
2023-02-12T20:57:37.042Z,54.83
2023-02-12T21:00:06.615Z,55.97
2023-02-12T21:02:34.254Z,55.76
2023-02-12T21:05:04.678Z,57.38
2023-02-12T21:07:33.631Z,58.72
2023-02-12T21:10:01.287Z,59.41
2023-02-12T21:12:28.982Z,59.67
2023-02-12T21:14:56.460Z,59.92
2023-02-12T21:17:25.300Z,60.52
2023-02-12T21:19:52.891Z,60.52
2023-02-12T21:22:21.448Z,61.54
2023-02-12T21:24:50.337Z,61.57
2023-02-12T21:27:19.100Z,61.38
2023-02-12T21:29:46.613Z,62.01
2023-02-12T21:32:14.323Z,61.86
2023-02-12T21:34:41.988Z,61.16
2023-02-12T21:37:09.478Z,61.51
2023-02-12T21:39:37.073Z,62.20
2023-02-12T21:42:10.416Z,63.48
2023-02-12T21:44:39.029Z,62.92
2023-02-12T21:47:07.497Z,62.79
2023-02-12T21:49:35.469Z,63.40
2023-02-12T21:52:06.786Z,63.49
2023-02-12T21:54:35.131Z,64.85
2023-02-12T21:57:02.621Z,64.08
2023-02-12T21:59:32.602Z,64.11
2023-02-12T22:02:01.770Z,64.35
2023-02-12T22:04:30.101Z,65.64
2023-02-12T22:06:59.752Z,66.54
2023-02-12T22:09:27.291Z,66.61
2023-02-12T22:11:55.135Z,66.91
2023-02-12T22:14:25.246Z,66.54
2023-02-12T22:16:52.941Z,65.99
2023-02-12T22:19:20.514Z,66.04
2023-02-12T22:21:51.745Z,65.73
2023-02-12T22:24:20.790Z,65.17
2023-02-12T22:26:48.518Z,65.77
2023-02-12T22:29:17.303Z,65.15
2023-02-12T22:31:47.334Z,64.82
2023-02-12T22:34:19.820Z,65.55
2023-02-12T22:36:47.894Z,65.50
2023-02-12T22:39:17.606Z,65.70
2023-02-12T22:41:45.574Z,66.31
2023-02-12T22:44:14.884Z,66.22
2023-02-12T22:46:43.529Z,67.29
2023-02-12T22:49:11.666Z,67.87
2023-02-12T22:51:39.839Z,69.37
2023-02-12T22:54:15.367Z,69.71
2023-02-12T22:56:44.307Z,69.57
2023-02-12T22:59:14.796Z,69.92
2023-02-12T23:01:43.419Z,70.06
2023-02-12T23:04:19.044Z,70.64
2023-02-12T23:06:47.163Z,70.43
2023-02-12T23:09:19.008Z,69.97
2023-02-12T23:11:47.786Z,70.45
2023-02-12T23:14:15.540Z,69.93
2023-02-12T23:16:43.161Z,69.67
2023-02-12T23:19:11.700Z,69.79
2023-02-12T23:21:39.677Z,70.14
2023-02-12T23:24:08.557Z,70.27
2023-02-12T23:26:36.711Z,70.93
2023-02-12T23:29:04.367Z,71.88
2023-02-12T23:31:32.136Z,71.86
2023-02-12T23:33:59.708Z,72.34
2023-02-12T23:36:28.759Z,72.71
2023-02-12T23:38:56.415Z,73.50
2023-02-12T23:41:23.964Z,74.02
2023-02-12T23:43:51.585Z,73.42
2023-02-12T23:46:19.136Z,73.55
2023-02-12T23:48:46.700Z,73.79
2023-02-12T23:51:14.255Z,73.19
2023-02-12T23:53:41.858Z,73.71
2023-02-12T23:56:09.531Z,74.02
2023-02-12T23:58:37.017Z,73.57
